This is the latest recevied weather packets stored in our database for station/object HB3YKO-13. If no packets are shown the sender has not sent any weather packets the latest 10 day(s).
| Time | Temp. | Humidity | Pressure | Rain* | Wind** | Luminosity | Snow |
|---|---|---|---|---|---|---|---|
| 1777732492 | 4.44° C | 31% | 0 hPa | 0 mm | - | - | - |
| 1777732192 | 5° C | 30% | 0 hPa | 0 mm | - | - | - |
| 1777731892 | 5° C | 29% | 0 hPa | 0 mm | - | - | - |
| 1777731592 | 5° C | 30% | 0 hPa | 0 mm | - | - | - |
| 1777731292 | 5.56° C | 28% | 0 hPa | 0 mm | - | - | - |
| 1777730992 | 5° C | 30% | 0 hPa | 0 mm | - | - | - |
| 1777730692 | 5° C | 30% | 0 hPa | 0 mm | - | - | - |
| 1777730392 | 5.56° C | 30% | 0 hPa | 0 mm | - | - | - |
| 1777730092 | 5.56° C | 30% | 0 hPa | 0 mm | - | - | - |
| 1777729792 | 5.56° C | 30% | 0 hPa | 0 mm | - | - | - |
| 1777729492 | 5° C | 33% | 0 hPa | 0 mm | - | - | - |
| 1777729192 | 5° C | 32% | 0 hPa | 0 mm | - | - | - |
| 1777728892 | 5.56° C | 34% | 0 hPa | 0 mm | - | - | - |
| 1777728592 | 3.33° C | 34% | 0 hPa | 0 mm | - | - | - |
| 1777728292 | 4.44° C | 32% | 0 hPa | 0 mm | - | - | - |
| 1777727992 | 6.67° C | 32% | 0 hPa | 0 mm | - | - | - |
| 1777727692 | -17.78° C | 100% | 0 hPa | 0 mm | - | - | - |
| 1777727392 | 3.89° C | 33% | 0 hPa | 0 mm | - | - | - |
| 1777727092 | 4.44° C | 35% | 0 hPa | 0 mm | - | - | - |
| 1777726792 | 4.44° C | 34% | 0 hPa | 0 mm | - | - | - |
| 1777726492 | 4.44° C | 35% | 0 hPa | 0 mm | - | - | - |
| 1777725892 | 4.44° C | 41% | 0 hPa | 0 mm | - | - | - |
| 1777725592 | 5° C | 38% | 0 hPa | 0 mm | - | - | - |
| 1777725292 | 6.11° C | 38% | 0 hPa | 0 mm | - | - | - |
| 1777724992 | 5.56° C | 37% | 0 hPa | 0 mm | - | - | - |
* Rain latest hour (hover to see other rain measurements)
** Current wind speed in m/s (hover to see current wind gust speed)